ENT4CP GCLP-EPPO
Flight info
| Callsign | ENT4CP |
|---|---|
| Flight time | 4h 35m |
| Altitude | 32000 |
| Route | VASTO UN858 AKUDA DCT MINTA/N0447F340 N747 OSLEP N858 OXACA M30 HIJ N10 VTB N871 TOPTU DCT GAI DCT NOQAS DCT MURRO T544 LSE/N0444F350 DCT BELUS/N0443F340 DCT OMASI N871 MOLUS/N0445F350 DCT TITIX DCT DKB N869 ANELA Z715 PEROX DCT GOVEN L979 KELOD |
| Aircraft | B738/M-SDE2E3FGHIRWXY/LB1 |
Departure
| Time | 2026-04-29 07:19 |
|---|---|
| Airport | Gran Canaria Airport (GCLP) |
Arrival
| Time | 2026-04-29 11:54 |
|---|---|
| Airport | Poznań-Ławica Airport (EPPO) |
| Time | Latitude | Longitude | Altitude | Speed | Heading |
|---|---|---|---|---|---|
| 2026-04-29 06:54 | 27.93064 | -15.38988 | 103 ft | 0 kts | 292° |
| 2026-04-29 07:15 | 27.93066 | -15.38993 | 103 ft | 1 kts | 292° |
| 2026-04-29 07:15 | 27.93074 | -15.39018 | 105 ft | 4 kts | 285° |
| 2026-04-29 07:15 | 27.93075 | -15.39031 | 106 ft | 4 kts | 274° |
| 2026-04-29 07:15 | 27.93048 | -15.39070 | 107 ft | 9 kts | 205° |
| 2026-04-29 07:16 | 27.92957 | -15.39113 | 109 ft | 16 kts | 204° |
| 2026-04-29 07:16 | 27.92853 | -15.39070 | 104 ft | 21 kts | 111° |
| 2026-04-29 07:16 | 27.92775 | -15.39053 | 102 ft | 3 kts | 205° |
| 2026-04-29 07:16 | 27.92727 | -15.39074 | 103 ft | 12 kts | 202° |
| 2026-04-29 07:17 | 27.92617 | -15.39120 | 107 ft | 20 kts | 201° |
| 2026-04-29 07:17 | 27.92476 | -15.39170 | 111 ft | 22 kts | 199° |
| 2026-04-29 07:17 | 27.92322 | -15.39235 | 115 ft | 25 kts | 201° |
| 2026-04-29 07:17 | 27.92139 | -15.39304 | 118 ft | 30 kts | 183° |
| 2026-04-29 07:18 | 27.91943 | -15.39279 | 113 ft | 16 kts | 148° |
| 2026-04-29 07:18 | 27.91969 | -15.39200 | 109 ft | 17 kts | 13° |
| 2026-04-29 07:18 | 27.92119 | -15.39124 | 104 ft | 41 kts | 20° |
| 2026-04-29 07:18 | 27.92628 | -15.38907 | 89 ft | 113 kts | 22° |
| 2026-04-29 07:19 | 27.93562 | -15.38487 | 87 ft | 172 kts | 22° |
| 2026-04-29 07:19 | 27.94697 | -15.37894 | 674 ft | 182 kts | 27° |
| 2026-04-29 07:19 | 27.95777 | -15.37333 | 1653 ft | 172 kts | 21° |
| 2026-04-29 07:19 | 27.96949 | -15.36782 | 1955 ft | 194 kts | 25° |
| 2026-04-29 07:20 | 27.98240 | -15.36238 | 2427 ft | 204 kts | 16° |
| 2026-04-29 07:20 | 27.99659 | -15.35801 | 2816 ft | 221 kts | 17° |
| 2026-04-29 07:20 | 28.01179 | -15.35242 | 3342 ft | 234 kts | 20° |
| 2026-04-29 07:20 | 28.02721 | -15.34597 | 3894 ft | 246 kts | 21° |
| 2026-04-29 07:21 | 28.04387 | -15.33872 | 4006 ft | 260 kts | 21° |
| 2026-04-29 07:21 | 28.06066 | -15.33135 | 3993 ft | 258 kts | 21° |
| 2026-04-29 07:21 | 28.07750 | -15.32400 | 3996 ft | 259 kts | 21° |
| 2026-04-29 07:21 | 28.09432 | -15.31521 | 4342 ft | 274 kts | 29° |
| 2026-04-29 07:22 | 28.11039 | -15.30392 | 5269 ft | 271 kts | 32° |
| 2026-04-29 07:22 | 28.12617 | -15.29226 | 5990 ft | 275 kts | 32° |
| 2026-04-29 07:22 | 28.14235 | -15.28058 | 6677 ft | 281 kts | 31° |
| 2026-04-29 07:22 | 28.15919 | -15.26875 | 7394 ft | 285 kts | 31° |
| 2026-04-29 07:23 | 28.17615 | -15.25701 | 8079 ft | 289 kts | 30° |
| 2026-04-29 07:23 | 28.19345 | -15.24516 | 8754 ft | 293 kts | 30° |
| 2026-04-29 07:23 | 28.21083 | -15.23328 | 9420 ft | 297 kts | 30° |
| 2026-04-29 07:23 | 28.22864 | -15.22111 | 10085 ft | 300 kts | 30° |
| 2026-04-29 07:24 | 28.24686 | -15.20866 | 10511 ft | 313 kts | 30° |
| 2026-04-29 07:24 | 28.26582 | -15.19573 | 10869 ft | 327 kts | 30° |
| 2026-04-29 07:24 | 28.28582 | -15.18205 | 11345 ft | 336 kts | 30° |
| 2026-04-29 07:24 | 28.30572 | -15.16838 | 11923 ft | 341 kts | 30° |
| 2026-04-29 07:25 | 28.32632 | -15.15421 | 12527 ft | 346 kts | 30° |
| 2026-04-29 07:25 | 28.34688 | -15.14010 | 13127 ft | 349 kts | 29° |
| 2026-04-29 07:25 | 28.36764 | -15.12587 | 13725 ft | 353 kts | 29° |
| 2026-04-29 07:25 | 28.38902 | -15.11125 | 14329 ft | 356 kts | 29° |
| 2026-04-29 07:26 | 28.41030 | -15.09667 | 14900 ft | 360 kts | 29° |
| 2026-04-29 07:26 | 28.43177 | -15.08195 | 15465 ft | 364 kts | 29° |
| 2026-04-29 07:26 | 28.45343 | -15.06710 | 16037 ft | 367 kts | 29° |
| 2026-04-29 07:26 | 28.47545 | -15.05196 | 16596 ft | 371 kts | 29° |
| 2026-04-29 07:27 | 28.49748 | -15.03677 | 17129 ft | 374 kts | 29° |
| 2026-04-29 07:27 | 28.51986 | -15.02132 | 17634 ft | 378 kts | 29° |
| 2026-04-29 07:27 | 28.54260 | -15.00563 | 18190 ft | 380 kts | 29° |
| 2026-04-29 07:27 | 28.56521 | -14.99005 | 18695 ft | 383 kts | 29° |
| 2026-04-29 07:28 | 28.58798 | -14.97436 | 19204 ft | 386 kts | 29° |
| 2026-04-29 07:28 | 28.61109 | -14.95844 | 19710 ft | 388 kts | 29° |
| 2026-04-29 07:28 | 28.63417 | -14.94254 | 20189 ft | 391 kts | 29° |
| 2026-04-29 07:28 | 28.65765 | -14.92636 | 20681 ft | 393 kts | 30° |
| 2026-04-29 07:29 | 28.68107 | -14.91022 | 21146 ft | 395 kts | 30° |
| 2026-04-29 07:29 | 28.70437 | -14.89414 | 21584 ft | 398 kts | 30° |
| 2026-04-29 07:29 | 28.72839 | -14.87756 | 22048 ft | 400 kts | 30° |
| 2026-04-29 07:29 | 28.75228 | -14.86107 | 22442 ft | 403 kts | 30° |
| 2026-04-29 07:30 | 28.77617 | -14.84456 | 22856 ft | 406 kts | 30° |
| 2026-04-29 07:30 | 28.80019 | -14.82796 | 23280 ft | 407 kts | 30° |
| 2026-04-29 07:30 | 28.82481 | -14.81093 | 23667 ft | 411 kts | 30° |
| 2026-04-29 07:31 | 28.87384 | -14.77698 | 24452 ft | 415 kts | 30° |
| 2026-04-29 07:31 | 28.89841 | -14.75995 | 24880 ft | 417 kts | 30° |
| 2026-04-29 07:31 | 28.92326 | -14.74272 | 25194 ft | 421 kts | 29° |
| 2026-04-29 07:31 | 28.94827 | -14.72537 | 25584 ft | 422 kts | 29° |
| 2026-04-29 07:32 | 28.97358 | -14.70779 | 25936 ft | 425 kts | 29° |
| 2026-04-29 07:32 | 28.99877 | -14.69029 | 26324 ft | 426 kts | 29° |
| 2026-04-29 07:32 | 29.02410 | -14.67268 | 26655 ft | 429 kts | 29° |
| 2026-04-29 07:32 | 29.04978 | -14.65481 | 26999 ft | 431 kts | 29° |
| 2026-04-29 07:33 | 29.07530 | -14.63705 | 27346 ft | 433 kts | 29° |
| 2026-04-29 07:33 | 29.10091 | -14.61922 | 27657 ft | 435 kts | 29° |
| 2026-04-29 07:33 | 29.12713 | -14.60097 | 27992 ft | 437 kts | 29° |
| 2026-04-29 07:33 | 29.15282 | -14.58306 | 28368 ft | 437 kts | 29° |
| 2026-04-29 07:34 | 29.17885 | -14.56490 | 28637 ft | 440 kts | 29° |
| 2026-04-29 07:34 | 29.20504 | -14.54661 | 28969 ft | 442 kts | 29° |
| 2026-04-29 07:34 | 29.23136 | -14.52822 | 29257 ft | 444 kts | 29° |
| 2026-04-29 07:34 | 29.25776 | -14.50976 | 29552 ft | 445 kts | 29° |
| 2026-04-29 07:35 | 29.28422 | -14.49125 | 29845 ft | 447 kts | 29° |
| 2026-04-29 07:35 | 29.31092 | -14.47257 | 30091 ft | 450 kts | 28° |
| 2026-04-29 07:35 | 29.33806 | -14.45357 | 30370 ft | 452 kts | 28° |
| 2026-04-29 07:35 | 29.36540 | -14.43443 | 30650 ft | 453 kts | 28° |
| 2026-04-29 07:36 | 29.39251 | -14.41543 | 30920 ft | 455 kts | 28° |
| 2026-04-29 07:36 | 29.41974 | -14.39634 | 31171 ft | 457 kts | 28° |
| 2026-04-29 07:36 | 29.44699 | -14.37722 | 31433 ft | 458 kts | 28° |
| 2026-04-29 07:36 | 29.47461 | -14.35783 | 31676 ft | 461 kts | 28° |
| 2026-04-29 07:37 | 29.50186 | -14.33869 | 31950 ft | 461 kts | 28° |
| 2026-04-29 07:37 | 29.52921 | -14.31947 | 31964 ft | 463 kts | 28° |
| 2026-04-29 07:37 | 29.58391 | -14.28096 | 31966 ft | 457 kts | 28° |
| 2026-04-29 07:38 | 29.63826 | -14.24264 | 31968 ft | 458 kts | 28° |
| 2026-04-29 07:38 | 29.69250 | -14.20432 | 31965 ft | 458 kts | 29° |
| 2026-04-29 07:39 | 29.74720 | -14.16566 | 31970 ft | 459 kts | 28° |
| 2026-04-29 07:39 | 29.80090 | -14.12646 | 31972 ft | 458 kts | 31° |
| 2026-04-29 07:40 | 29.85391 | -14.08538 | 31971 ft | 459 kts | 32° |
| 2026-04-29 07:40 | 29.90671 | -14.04398 | 31971 ft | 458 kts | 32° |
| 2026-04-29 07:41 | 29.95934 | -14.00279 | 31971 ft | 462 kts | 31° |
| 2026-04-29 07:41 | 30.01357 | -13.96053 | 31968 ft | 473 kts | 31° |
| 2026-04-29 07:42 | 30.06863 | -13.91769 | 31968 ft | 484 kts | 32° |
| 2026-04-29 07:42 | 30.12504 | -13.87379 | 31969 ft | 489 kts | 32° |
| 2026-04-29 07:43 | 30.18150 | -13.82978 | 31974 ft | 488 kts | 32° |
| 2026-04-29 07:43 | 30.23799 | -13.78568 | 31978 ft | 489 kts | 32° |
| 2026-04-29 07:44 | 30.29425 | -13.74171 | 31981 ft | 488 kts | 32° |
| 2026-04-29 07:44 | 30.35031 | -13.69785 | 31981 ft | 487 kts | 32° |
| 2026-04-29 07:45 | 30.40643 | -13.65389 | 31982 ft | 488 kts | 32° |
| 2026-04-29 07:45 | 30.46270 | -13.60975 | 31982 ft | 489 kts | 32° |
| 2026-04-29 07:46 | 30.51883 | -13.56565 | 31983 ft | 488 kts | 32° |
| 2026-04-29 07:46 | 30.57498 | -13.52116 | 31986 ft | 489 kts | 32° |
| 2026-04-29 07:47 | 30.63080 | -13.47667 | 31984 ft | 489 kts | 32° |
| 2026-04-29 07:47 | 30.68703 | -13.43176 | 31987 ft | 489 kts | 32° |
| 2026-04-29 07:48 | 30.74299 | -13.38704 | 31989 ft | 488 kts | 33° |
| 2026-04-29 07:48 | 30.79897 | -13.34227 | 31981 ft | 488 kts | 33° |
| 2026-04-29 07:49 | 30.85491 | -13.29747 | 31978 ft | 488 kts | 33° |
| 2026-04-29 07:49 | 30.91103 | -13.25249 | 31976 ft | 489 kts | 33° |
| 2026-04-29 07:50 | 30.96718 | -13.20762 | 31973 ft | 489 kts | 33° |
| 2026-04-29 07:50 | 31.02341 | -13.16295 | 31969 ft | 489 kts | 33° |
| 2026-04-29 07:51 | 31.07929 | -13.11856 | 31973 ft | 489 kts | 33° |
| 2026-04-29 07:51 | 31.13577 | -13.07361 | 31969 ft | 489 kts | 33° |
| 2026-04-29 07:52 | 31.19214 | -13.02864 | 31966 ft | 490 kts | 33° |
| 2026-04-29 07:52 | 31.24832 | -12.98372 | 31968 ft | 489 kts | 33° |
| 2026-04-29 07:53 | 31.30437 | -12.93884 | 31966 ft | 489 kts | 33° |
| 2026-04-29 07:53 | 31.36026 | -12.89404 | 31967 ft | 490 kts | 33° |
| 2026-04-29 07:54 | 31.41689 | -12.84856 | 31966 ft | 490 kts | 33° |
| 2026-04-29 07:54 | 31.47327 | -12.80321 | 31967 ft | 490 kts | 33° |
| 2026-04-29 07:55 | 31.52961 | -12.75782 | 31967 ft | 490 kts | 33° |
| 2026-04-29 07:55 | 31.58565 | -12.71260 | 31967 ft | 489 kts | 33° |
| 2026-04-29 07:56 | 31.64152 | -12.66749 | 31967 ft | 490 kts | 33° |
| 2026-04-29 07:56 | 31.69772 | -12.62202 | 31967 ft | 490 kts | 33° |
| 2026-04-29 07:57 | 31.75366 | -12.57670 | 31968 ft | 490 kts | 33° |
| 2026-04-29 07:57 | 31.80973 | -12.53121 | 31967 ft | 490 kts | 33° |
| 2026-04-29 07:58 | 31.86589 | -12.48557 | 31968 ft | 490 kts | 33° |
| 2026-04-29 07:58 | 31.92188 | -12.44000 | 31967 ft | 490 kts | 33° |
| 2026-04-29 07:59 | 31.97793 | -12.39429 | 31966 ft | 491 kts | 33° |
| 2026-04-29 07:59 | 32.03397 | -12.34866 | 31969 ft | 490 kts | 33° |
| 2026-04-29 08:00 | 32.08998 | -12.30307 | 31968 ft | 489 kts | 33° |
| 2026-04-29 08:00 | 32.14597 | -12.25743 | 31967 ft | 491 kts | 33° |
| 2026-04-29 08:01 | 32.20240 | -12.21134 | 31966 ft | 492 kts | 33° |
| 2026-04-29 08:01 | 32.25892 | -12.16510 | 31967 ft | 491 kts | 33° |
| 2026-04-29 08:02 | 32.31521 | -12.11895 | 31967 ft | 491 kts | 33° |
| 2026-04-29 08:02 | 32.37114 | -12.07304 | 31967 ft | 493 kts | 33° |
| 2026-04-29 08:03 | 32.42773 | -12.02654 | 31966 ft | 492 kts | 33° |
| 2026-04-29 08:03 | 32.48386 | -11.98033 | 31967 ft | 492 kts | 33° |
| 2026-04-29 08:04 | 32.53979 | -11.93422 | 31965 ft | 492 kts | 33° |
| 2026-04-29 08:04 | 32.59620 | -11.88766 | 31966 ft | 492 kts | 33° |
| 2026-04-29 08:05 | 32.65246 | -11.84113 | 31965 ft | 493 kts | 33° |
| 2026-04-29 08:05 | 32.70908 | -11.79423 | 31962 ft | 493 kts | 32° |
| 2026-04-29 08:06 | 32.76492 | -11.74791 | 31964 ft | 493 kts | 32° |
| 2026-04-29 08:06 | 32.82120 | -11.70113 | 31962 ft | 493 kts | 32° |
| 2026-04-29 08:07 | 32.87762 | -11.65418 | 31959 ft | 494 kts | 32° |
| 2026-04-29 08:07 | 32.93383 | -11.60732 | 31951 ft | 494 kts | 32° |
| 2026-04-29 08:08 | 32.99018 | -11.56027 | 31947 ft | 494 kts | 32° |
| 2026-04-29 08:08 | 33.04657 | -11.51310 | 31946 ft | 493 kts | 32° |
| 2026-04-29 08:09 | 33.10301 | -11.46584 | 31946 ft | 493 kts | 32° |
| 2026-04-29 08:09 | 33.15919 | -11.41872 | 31947 ft | 494 kts | 32° |
| 2026-04-29 08:10 | 33.21554 | -11.37126 | 31948 ft | 494 kts | 32° |
| 2026-04-29 08:10 | 33.27173 | -11.32362 | 31948 ft | 495 kts | 33° |
| 2026-04-29 08:11 | 33.32822 | -11.27558 | 31946 ft | 495 kts | 33° |
| 2026-04-29 08:11 | 33.38410 | -11.22801 | 31946 ft | 496 kts | 33° |
| 2026-04-29 08:12 | 33.44034 | -11.18008 | 31946 ft | 496 kts | 32° |
| 2026-04-29 08:12 | 33.49646 | -11.13218 | 31946 ft | 497 kts | 32° |
| 2026-04-29 08:13 | 33.55286 | -11.08399 | 31946 ft | 496 kts | 32° |
| 2026-04-29 08:13 | 33.60894 | -11.03597 | 31946 ft | 497 kts | 33° |
| 2026-04-29 08:14 | 33.66552 | -10.98744 | 31946 ft | 498 kts | 32° |
| 2026-04-29 08:14 | 33.72156 | -10.93931 | 31946 ft | 496 kts | 32° |
| 2026-04-29 08:15 | 33.77774 | -10.89099 | 31946 ft | 496 kts | 32° |
| 2026-04-29 08:15 | 33.83396 | -10.84255 | 31946 ft | 497 kts | 32° |
| 2026-04-29 08:16 | 33.89009 | -10.79410 | 31946 ft | 497 kts | 32° |
| 2026-04-29 08:16 | 33.94637 | -10.74544 | 31946 ft | 498 kts | 32° |
| 2026-04-29 08:17 | 34.00286 | -10.69649 | 31946 ft | 499 kts | 32° |
| 2026-04-29 08:17 | 34.05944 | -10.64740 | 31945 ft | 499 kts | 32° |
| 2026-04-29 08:18 | 34.11577 | -10.59847 | 31942 ft | 499 kts | 32° |
| 2026-04-29 08:18 | 34.17188 | -10.54964 | 31944 ft | 498 kts | 32° |
| 2026-04-29 08:19 | 34.22813 | -10.50058 | 31942 ft | 498 kts | 32° |
| 2026-04-29 08:19 | 34.28429 | -10.45153 | 31939 ft | 498 kts | 32° |
| 2026-04-29 08:20 | 34.34018 | -10.40265 | 31937 ft | 498 kts | 32° |
| 2026-04-29 08:20 | 34.39649 | -10.35332 | 31931 ft | 499 kts | 32° |
| 2026-04-29 08:21 | 34.45281 | -10.30391 | 31929 ft | 499 kts | 32° |
| 2026-04-29 08:21 | 34.50881 | -10.25468 | 31929 ft | 498 kts | 32° |
| 2026-04-29 08:22 | 34.56529 | -10.20494 | 31927 ft | 499 kts | 32° |
| 2026-04-29 08:22 | 34.62135 | -10.15548 | 31927 ft | 499 kts | 32° |
| 2026-04-29 08:23 | 34.67814 | -10.10548 | 31926 ft | 499 kts | 32° |
| 2026-04-29 08:23 | 34.73453 | -10.05591 | 31926 ft | 500 kts | 32° |
| 2026-04-29 08:24 | 34.79081 | -10.00639 | 31926 ft | 499 kts | 32° |
| 2026-04-29 08:24 | 34.84721 | -9.95664 | 31926 ft | 499 kts | 32° |
| 2026-04-29 08:25 | 34.90325 | -9.90710 | 31924 ft | 500 kts | 32° |
| 2026-04-29 08:25 | 34.95991 | -9.85691 | 31929 ft | 500 kts | 32° |
| 2026-04-29 08:26 | 35.01593 | -9.80719 | 31928 ft | 500 kts | 32° |
| 2026-04-29 08:26 | 35.07233 | -9.75706 | 31926 ft | 500 kts | 32° |
| 2026-04-29 08:27 | 35.12848 | -9.70707 | 31927 ft | 500 kts | 32° |
| 2026-04-29 08:27 | 35.18466 | -9.65697 | 31931 ft | 500 kts | 32° |
| 2026-04-29 08:28 | 35.24106 | -9.60657 | 31936 ft | 501 kts | 32° |
| 2026-04-29 08:28 | 35.29723 | -9.55629 | 31923 ft | 500 kts | 32° |
| 2026-04-29 08:29 | 35.35296 | -9.50632 | 31919 ft | 501 kts | 32° |
| 2026-04-29 08:29 | 35.40910 | -9.45590 | 31923 ft | 500 kts | 32° |
| 2026-04-29 08:30 | 35.49329 | -9.38011 | 31926 ft | 500 kts | 31° |
| 2026-04-29 08:31 | 35.54922 | -9.32966 | 31924 ft | 500 kts | 32° |
| 2026-04-29 08:31 | 35.60539 | -9.27890 | 31924 ft | 501 kts | 32° |
| 2026-04-29 08:32 | 35.66161 | -9.22801 | 31926 ft | 500 kts | 32° |
| 2026-04-29 08:32 | 35.71732 | -9.17750 | 31920 ft | 501 kts | 32° |
| 2026-04-29 08:33 | 35.77345 | -9.12651 | 31912 ft | 501 kts | 32° |
| 2026-04-29 08:33 | 35.82933 | -9.07562 | 31908 ft | 500 kts | 32° |
| 2026-04-29 08:34 | 35.88507 | -9.02476 | 31906 ft | 500 kts | 32° |
| 2026-04-29 08:34 | 35.94092 | -8.97354 | 31904 ft | 501 kts | 33° |
| 2026-04-29 08:35 | 35.99345 | -8.91673 | 31905 ft | 504 kts | 40° |
| 2026-04-29 08:35 | 36.04243 | -8.85404 | 31903 ft | 507 kts | 43° |
| 2026-04-29 08:36 | 36.09001 | -8.79000 | 31908 ft | 508 kts | 44° |
| 2026-04-29 08:36 | 36.13780 | -8.72541 | 31902 ft | 509 kts | 44° |
| 2026-04-29 08:37 | 36.18578 | -8.66094 | 31904 ft | 509 kts | 43° |
| 2026-04-29 08:37 | 36.23381 | -8.59676 | 31900 ft | 510 kts | 43° |
| 2026-04-29 08:38 | 36.28180 | -8.53273 | 31898 ft | 509 kts | 43° |
| 2026-04-29 08:38 | 36.33025 | -8.46806 | 31899 ft | 510 kts | 43° |
| 2026-04-29 08:39 | 36.37819 | -8.40400 | 31900 ft | 510 kts | 43° |
| 2026-04-29 08:39 | 36.42667 | -8.33908 | 31896 ft | 510 kts | 44° |
| 2026-04-29 08:40 | 36.47506 | -8.27409 | 31893 ft | 512 kts | 44° |
| 2026-04-29 08:40 | 36.52316 | -8.20937 | 31896 ft | 511 kts | 44° |
| 2026-04-29 08:41 | 36.57133 | -8.14444 | 31892 ft | 513 kts | 44° |
| 2026-04-29 08:41 | 36.61968 | -8.07914 | 31892 ft | 512 kts | 44° |
| 2026-04-29 08:42 | 36.66782 | -8.01395 | 31895 ft | 512 kts | 44° |
| 2026-04-29 08:42 | 36.71595 | -7.94871 | 31891 ft | 514 kts | 44° |
| 2026-04-29 08:43 | 36.76450 | -7.88280 | 31893 ft | 513 kts | 44° |
| 2026-04-29 08:43 | 36.81269 | -7.81722 | 31894 ft | 515 kts | 44° |
| 2026-04-29 08:44 | 36.86064 | -7.75183 | 31891 ft | 513 kts | 44° |
| 2026-04-29 08:44 | 36.90890 | -7.68586 | 31888 ft | 513 kts | 44° |
| 2026-04-29 08:45 | 36.95737 | -7.61949 | 31890 ft | 512 kts | 44° |
| 2026-04-29 08:45 | 37.00533 | -7.55372 | 31882 ft | 513 kts | 44° |
| 2026-04-29 08:46 | 37.05327 | -7.48783 | 31886 ft | 514 kts | 44° |
| 2026-04-29 08:46 | 37.10087 | -7.41997 | 31879 ft | 516 kts | 50° |
| 2026-04-29 08:47 | 37.13460 | -7.34024 | 31884 ft | 523 kts | 69° |
| 2026-04-29 08:47 | 37.15584 | -7.25338 | 31889 ft | 522 kts | 73° |
| 2026-04-29 08:48 | 37.18256 | -7.16884 | 31904 ft | 520 kts | 58° |
| 2026-04-29 08:48 | 37.22296 | -7.09454 | 31900 ft | 515 kts | 48° |
| 2026-04-29 08:49 | 37.26987 | -7.02634 | 31899 ft | 517 kts | 45° |
| 2026-04-29 08:49 | 37.31800 | -6.95918 | 31899 ft | 515 kts | 45° |
| 2026-04-29 08:50 | 37.36514 | -6.89161 | 31890 ft | 516 kts | 46° |
| 2026-04-29 08:50 | 37.41165 | -6.82280 | 31890 ft | 519 kts | 46° |
| 2026-04-29 08:51 | 37.45768 | -6.75351 | 31894 ft | 517 kts | 47° |
| 2026-04-29 08:51 | 37.50369 | -6.68371 | 31893 ft | 518 kts | 47° |
| 2026-04-29 08:52 | 37.54941 | -6.61419 | 31896 ft | 518 kts | 47° |
| 2026-04-29 08:52 | 37.59556 | -6.54399 | 31892 ft | 519 kts | 47° |
| 2026-04-29 08:53 | 37.64131 | -6.47427 | 31889 ft | 520 kts | 47° |
| 2026-04-29 08:53 | 37.68757 | -6.40359 | 31895 ft | 517 kts | 47° |
| 2026-04-29 08:54 | 37.73355 | -6.33326 | 31924 ft | 521 kts | 47° |
| 2026-04-29 08:54 | 37.75650 | -6.29811 | 32257 ft | 521 kts | 47° |
| 2026-04-29 08:54 | 37.77949 | -6.26285 | 32740 ft | 518 kts | 47° |
| 2026-04-29 08:54 | 37.80229 | -6.22782 | 33149 ft | 516 kts | 47° |
| 2026-04-29 08:55 | 37.82511 | -6.19273 | 33491 ft | 516 kts | 47° |
| 2026-04-29 08:55 | 37.84795 | -6.15758 | 33829 ft | 515 kts | 47° |
| 2026-04-29 08:55 | 37.87073 | -6.12251 | 33895 ft | 518 kts | 48° |
| 2026-04-29 08:56 | 37.91672 | -6.05154 | 33898 ft | 517 kts | 48° |
| 2026-04-29 08:56 | 37.96251 | -5.98065 | 33899 ft | 518 kts | 48° |
| 2026-04-29 08:57 | 38.00785 | -5.90899 | 33895 ft | 518 kts | 49° |
| 2026-04-29 08:57 | 38.05239 | -5.83751 | 33896 ft | 516 kts | 49° |
| 2026-04-29 08:58 | 38.09687 | -5.76597 | 33898 ft | 516 kts | 49° |
| 2026-04-29 08:58 | 38.14108 | -5.69482 | 33903 ft | 517 kts | 49° |
| 2026-04-29 08:59 | 38.18547 | -5.62331 | 33900 ft | 516 kts | 49° |
| 2026-04-29 08:59 | 38.22993 | -5.55166 | 33894 ft | 516 kts | 49° |
| 2026-04-29 09:00 | 38.27408 | -5.48036 | 33894 ft | 516 kts | 49° |
| 2026-04-29 09:00 | 38.31878 | -5.40805 | 33893 ft | 516 kts | 49° |
| 2026-04-29 09:01 | 38.36296 | -5.33644 | 33899 ft | 514 kts | 50° |
| 2026-04-29 09:01 | 38.40693 | -5.26488 | 33889 ft | 516 kts | 50° |
| 2026-04-29 09:02 | 38.45129 | -5.19255 | 33896 ft | 513 kts | 50° |
| 2026-04-29 09:02 | 38.49552 | -5.12055 | 33902 ft | 516 kts | 49° |
| 2026-04-29 09:03 | 38.54345 | -5.05218 | 33905 ft | 515 kts | 43° |
| 2026-04-29 09:03 | 38.59415 | -4.98831 | 33908 ft | 512 kts | 41° |
| 2026-04-29 09:04 | 38.64556 | -4.92541 | 33913 ft | 514 kts | 40° |
| 2026-04-29 09:04 | 38.69675 | -4.86224 | 33915 ft | 513 kts | 41° |
| 2026-04-29 09:05 | 38.74762 | -4.79862 | 33912 ft | 510 kts | 41° |
| 2026-04-29 09:05 | 38.79850 | -4.73442 | 33908 ft | 513 kts | 41° |
| 2026-04-29 09:06 | 38.84881 | -4.67056 | 33911 ft | 512 kts | 42° |
| 2026-04-29 09:06 | 38.89982 | -4.60573 | 33909 ft | 512 kts | 42° |
| 2026-04-29 09:07 | 38.95009 | -4.54180 | 33908 ft | 511 kts | 42° |
| 2026-04-29 09:07 | 39.00051 | -4.47744 | 33911 ft | 508 kts | 42° |
| 2026-04-29 09:08 | 39.05022 | -4.41385 | 33907 ft | 507 kts | 42° |
| 2026-04-29 09:08 | 39.10027 | -4.34975 | 33922 ft | 508 kts | 43° |
| 2026-04-29 09:09 | 39.15029 | -4.28552 | 33909 ft | 506 kts | 43° |
| 2026-04-29 09:09 | 39.20003 | -4.22147 | 33912 ft | 507 kts | 43° |
| 2026-04-29 09:10 | 39.24930 | -4.15796 | 33912 ft | 504 kts | 44° |
| 2026-04-29 09:10 | 39.29930 | -4.09339 | 33914 ft | 505 kts | 44° |
| 2026-04-29 09:11 | 39.34862 | -4.02948 | 33918 ft | 503 kts | 44° |
| 2026-04-29 09:11 | 39.39799 | -3.96543 | 33918 ft | 502 kts | 44° |
| 2026-04-29 09:12 | 39.44706 | -3.90164 | 33922 ft | 501 kts | 44° |
| 2026-04-29 09:12 | 39.49605 | -3.83780 | 33922 ft | 501 kts | 44° |
| 2026-04-29 09:13 | 39.54496 | -3.77396 | 33920 ft | 499 kts | 45° |
| 2026-04-29 09:13 | 39.59396 | -3.70978 | 33916 ft | 498 kts | 45° |
| 2026-04-29 09:14 | 39.64235 | -3.64631 | 33918 ft | 497 kts | 45° |
| 2026-04-29 09:14 | 39.69106 | -3.58233 | 33924 ft | 497 kts | 45° |
| 2026-04-29 09:15 | 39.73934 | -3.51880 | 33922 ft | 495 kts | 45° |
| 2026-04-29 09:15 | 39.78961 | -3.45799 | 33923 ft | 493 kts | 39° |
| 2026-04-29 09:16 | 39.84526 | -3.40537 | 33923 ft | 493 kts | 33° |
| 2026-04-29 09:16 | 39.90228 | -3.35701 | 33922 ft | 492 kts | 32° |
| 2026-04-29 09:17 | 39.95980 | -3.30897 | 33918 ft | 493 kts | 33° |
| 2026-04-29 09:17 | 40.01775 | -3.25997 | 33913 ft | 493 kts | 34° |
| 2026-04-29 09:18 | 40.07479 | -3.21110 | 33909 ft | 493 kts | 34° |
| 2026-04-29 09:18 | 40.13218 | -3.16154 | 33912 ft | 494 kts | 34° |
| 2026-04-29 09:19 | 40.18926 | -3.11203 | 33912 ft | 494 kts | 34° |
| 2026-04-29 09:19 | 40.24632 | -3.06239 | 33912 ft | 494 kts | 35° |
| 2026-04-29 09:20 | 40.30333 | -3.01269 | 33913 ft | 493 kts | 35° |
| 2026-04-29 09:20 | 40.36064 | -2.96263 | 33913 ft | 493 kts | 35° |
| 2026-04-29 09:21 | 40.41742 | -2.91293 | 33919 ft | 493 kts | 35° |
| 2026-04-29 09:21 | 40.47467 | -2.86270 | 33921 ft | 493 kts | 35° |
| 2026-04-29 09:22 | 40.53157 | -2.81269 | 33918 ft | 495 kts | 35° |
| 2026-04-29 09:22 | 40.58837 | -2.76267 | 33924 ft | 494 kts | 35° |
| 2026-04-29 09:23 | 40.64584 | -2.71196 | 33931 ft | 494 kts | 35° |
| 2026-04-29 09:23 | 40.70267 | -2.66169 | 33928 ft | 493 kts | 36° |
| 2026-04-29 09:24 | 40.75989 | -2.61095 | 33933 ft | 493 kts | 36° |
| 2026-04-29 09:24 | 40.81680 | -2.56040 | 33935 ft | 494 kts | 36° |
| 2026-04-29 09:25 | 40.87348 | -2.50999 | 33942 ft | 493 kts | 36° |
| 2026-04-29 09:25 | 40.93030 | -2.45938 | 33942 ft | 493 kts | 36° |
| 2026-04-29 09:26 | 40.98718 | -2.40857 | 33939 ft | 493 kts | 36° |
| 2026-04-29 09:26 | 41.04360 | -2.35742 | 33941 ft | 495 kts | 38° |
| 2026-04-29 09:27 | 41.09793 | -2.30155 | 33943 ft | 494 kts | 42° |
| 2026-04-29 09:27 | 41.15081 | -2.24375 | 33943 ft | 493 kts | 43° |
| 2026-04-29 09:28 | 41.20359 | -2.18600 | 33943 ft | 494 kts | 42° |
| 2026-04-29 09:28 | 41.25708 | -2.12800 | 33932 ft | 494 kts | 42° |
| 2026-04-29 09:29 | 41.31010 | -2.07095 | 33938 ft | 493 kts | 42° |
| 2026-04-29 09:29 | 41.39033 | -1.98479 | 33936 ft | 494 kts | 41° |
| 2026-04-29 09:30 | 41.44374 | -1.92742 | 33930 ft | 495 kts | 41° |
| 2026-04-29 09:30 | 41.49757 | -1.86952 | 33926 ft | 494 kts | 41° |
| 2026-04-29 09:31 | 41.55077 | -1.81210 | 33927 ft | 495 kts | 41° |
| 2026-04-29 09:31 | 41.60426 | -1.75426 | 33931 ft | 495 kts | 41° |
| 2026-04-29 09:32 | 41.65762 | -1.69641 | 33924 ft | 495 kts | 41° |
| 2026-04-29 09:32 | 41.71111 | -1.63828 | 33925 ft | 495 kts | 41° |
| 2026-04-29 09:33 | 41.76423 | -1.58040 | 33926 ft | 496 kts | 41° |
| 2026-04-29 09:33 | 41.81760 | -1.52211 | 33922 ft | 494 kts | 41° |
| 2026-04-29 09:34 | 41.87102 | -1.46364 | 33908 ft | 495 kts | 41° |
| 2026-04-29 09:34 | 41.92399 | -1.40551 | 33911 ft | 496 kts | 41° |
| 2026-04-29 09:35 | 41.97732 | -1.34682 | 33914 ft | 495 kts | 41° |
| 2026-04-29 09:35 | 42.03074 | -1.28786 | 33910 ft | 496 kts | 41° |
| 2026-04-29 09:36 | 42.08398 | -1.22915 | 33918 ft | 496 kts | 41° |
| 2026-04-29 09:36 | 42.13742 | -1.17013 | 33925 ft | 497 kts | 41° |
| 2026-04-29 09:37 | 42.19080 | -1.11101 | 33930 ft | 497 kts | 41° |
| 2026-04-29 09:37 | 42.24395 | -1.05197 | 33930 ft | 496 kts | 41° |
| 2026-04-29 09:38 | 42.29748 | -0.99239 | 33932 ft | 497 kts | 41° |
| 2026-04-29 09:38 | 42.35057 | -0.93313 | 33934 ft | 496 kts | 41° |
| 2026-04-29 09:39 | 42.40342 | -0.87348 | 33940 ft | 495 kts | 43° |
| 2026-04-29 09:39 | 42.45169 | -0.80773 | 33936 ft | 494 kts | 51° |
| 2026-04-29 09:40 | 42.49465 | -0.73542 | 33935 ft | 492 kts | 54° |
| 2026-04-29 09:40 | 42.53565 | -0.66155 | 33932 ft | 492 kts | 55° |
| 2026-04-29 09:41 | 42.57661 | -0.58742 | 33938 ft | 493 kts | 55° |
| 2026-04-29 09:41 | 42.61792 | -0.51315 | 33951 ft | 492 kts | 54° |
| 2026-04-29 09:42 | 42.65917 | -0.43949 | 33960 ft | 492 kts | 54° |
| 2026-04-29 09:42 | 42.70060 | -0.36566 | 33966 ft | 493 kts | 54° |
| 2026-04-29 09:43 | 42.74216 | -0.29155 | 33972 ft | 492 kts | 55° |
| 2026-04-29 09:43 | 42.78351 | -0.21764 | 33964 ft | 494 kts | 55° |
| 2026-04-29 09:44 | 42.82551 | -0.14355 | 33966 ft | 493 kts | 53° |
| 2026-04-29 09:44 | 42.86832 | -0.07114 | 33974 ft | 493 kts | 52° |
| 2026-04-29 09:45 | 42.91165 | 0.00144 | 33971 ft | 493 kts | 52° |
| 2026-04-29 09:45 | 42.95473 | 0.07395 | 33968 ft | 492 kts | 52° |
| 2026-04-29 09:46 | 42.99764 | 0.14669 | 33963 ft | 492 kts | 53° |
| 2026-04-29 09:46 | 43.04070 | 0.22012 | 33957 ft | 492 kts | 53° |
| 2026-04-29 09:47 | 43.08325 | 0.29299 | 33942 ft | 493 kts | 53° |
| 2026-04-29 09:47 | 43.12571 | 0.36590 | 33929 ft | 493 kts | 52° |
| 2026-04-29 09:48 | 43.16828 | 0.43915 | 33914 ft | 492 kts | 52° |
| 2026-04-29 09:48 | 43.21061 | 0.51213 | 33909 ft | 491 kts | 52° |
| 2026-04-29 09:49 | 43.25308 | 0.58550 | 33896 ft | 490 kts | 52° |
| 2026-04-29 09:49 | 43.29517 | 0.65839 | 33895 ft | 491 kts | 53° |
| 2026-04-29 09:50 | 43.33759 | 0.73206 | 33892 ft | 490 kts | 53° |
| 2026-04-29 09:50 | 43.37950 | 0.80503 | 33887 ft | 490 kts | 53° |
| 2026-04-29 09:51 | 43.42185 | 0.87894 | 33891 ft | 490 kts | 53° |
| 2026-04-29 09:51 | 43.46384 | 0.95240 | 33888 ft | 490 kts | 53° |
| 2026-04-29 09:52 | 43.50581 | 1.02601 | 33885 ft | 489 kts | 52° |
| 2026-04-29 09:52 | 43.54748 | 1.09929 | 33886 ft | 489 kts | 52° |
| 2026-04-29 09:53 | 43.58957 | 1.17351 | 33898 ft | 489 kts | 52° |
| 2026-04-29 09:53 | 43.63141 | 1.24743 | 33897 ft | 490 kts | 52° |
| 2026-04-29 09:54 | 43.67344 | 1.32190 | 33907 ft | 491 kts | 52° |
| 2026-04-29 09:54 | 43.71510 | 1.39587 | 33906 ft | 489 kts | 52° |
| 2026-04-29 09:55 | 43.75689 | 1.47028 | 33906 ft | 490 kts | 52° |
| 2026-04-29 09:55 | 43.79856 | 1.54467 | 33912 ft | 491 kts | 52° |
| 2026-04-29 09:56 | 43.83999 | 1.61881 | 33914 ft | 489 kts | 52° |
| 2026-04-29 09:56 | 43.88157 | 1.69342 | 33909 ft | 488 kts | 53° |
| 2026-04-29 09:57 | 43.92286 | 1.76768 | 33908 ft | 488 kts | 52° |
| 2026-04-29 09:57 | 43.96416 | 1.84221 | 33916 ft | 488 kts | 52° |
| 2026-04-29 09:58 | 44.00517 | 1.91715 | 33918 ft | 489 kts | 53° |
| 2026-04-29 09:58 | 44.04620 | 1.99274 | 33916 ft | 489 kts | 53° |
| 2026-04-29 09:59 | 44.08691 | 2.06796 | 33928 ft | 489 kts | 53° |
| 2026-04-29 09:59 | 44.12762 | 2.14332 | 33929 ft | 487 kts | 53° |
| 2026-04-29 10:00 | 44.16816 | 2.21857 | 33941 ft | 488 kts | 53° |
| 2026-04-29 10:00 | 44.20863 | 2.29380 | 33950 ft | 487 kts | 52° |
| 2026-04-29 10:01 | 44.24934 | 2.36964 | 33960 ft | 487 kts | 52° |
| 2026-04-29 10:01 | 44.28970 | 2.44502 | 33964 ft | 487 kts | 52° |
| 2026-04-29 10:02 | 44.33026 | 2.52095 | 33975 ft | 488 kts | 52° |
| 2026-04-29 10:02 | 44.37046 | 2.59645 | 33983 ft | 487 kts | 52° |
| 2026-04-29 10:03 | 44.41100 | 2.67277 | 33981 ft | 487 kts | 53° |
| 2026-04-29 10:03 | 44.45139 | 2.74899 | 33982 ft | 489 kts | 53° |
| 2026-04-29 10:04 | 44.49177 | 2.82543 | 33979 ft | 487 kts | 53° |
| 2026-04-29 10:04 | 44.52985 | 2.90328 | 33991 ft | 486 kts | 57° |
| 2026-04-29 10:05 | 44.56529 | 2.98414 | 34000 ft | 486 kts | 58° |
| 2026-04-29 10:05 | 44.60053 | 3.06601 | 34463 ft | 488 kts | 58° |
| 2026-04-29 10:06 | 44.61805 | 3.10643 | 34928 ft | 485 kts | 58° |
| 2026-04-29 10:06 | 44.63552 | 3.14655 | 34997 ft | 488 kts | 58° |
| 2026-04-29 10:06 | 44.67106 | 3.22768 | 35004 ft | 483 kts | 58° |
| 2026-04-29 10:07 | 44.70622 | 3.30757 | 35010 ft | 484 kts | 57° |
| 2026-04-29 10:07 | 44.74163 | 3.38803 | 35020 ft | 485 kts | 57° |
| 2026-04-29 10:08 | 44.77691 | 3.46828 | 35028 ft | 484 kts | 57° |
| 2026-04-29 10:08 | 44.81218 | 3.54875 | 35030 ft | 483 kts | 57° |
| 2026-04-29 10:09 | 44.84732 | 3.62917 | 35035 ft | 483 kts | 57° |
| 2026-04-29 10:09 | 44.88236 | 3.70961 | 35032 ft | 483 kts | 58° |
| 2026-04-29 10:10 | 44.91754 | 3.79061 | 35037 ft | 484 kts | 58° |
| 2026-04-29 10:10 | 44.95272 | 3.87185 | 35037 ft | 482 kts | 58° |
| 2026-04-29 10:11 | 44.98779 | 3.95303 | 35042 ft | 483 kts | 58° |
| 2026-04-29 10:11 | 45.02266 | 4.03403 | 35036 ft | 481 kts | 58° |
| 2026-04-29 10:12 | 45.05752 | 4.11522 | 35035 ft | 482 kts | 58° |
| 2026-04-29 10:12 | 45.09215 | 4.19605 | 35035 ft | 482 kts | 58° |
| 2026-04-29 10:13 | 45.12682 | 4.27723 | 35033 ft | 481 kts | 57° |
| 2026-04-29 10:13 | 45.16116 | 4.35789 | 35031 ft | 481 kts | 57° |
| 2026-04-29 10:14 | 45.19566 | 4.43913 | 35031 ft | 480 kts | 57° |
| 2026-04-29 10:14 | 45.23006 | 4.52038 | 35036 ft | 480 kts | 57° |
| 2026-04-29 10:15 | 45.26428 | 4.60146 | 35028 ft | 480 kts | 57° |
| 2026-04-29 10:15 | 45.29827 | 4.68220 | 35017 ft | 479 kts | 58° |
| 2026-04-29 10:16 | 45.32660 | 4.74972 | 35011 ft | 478 kts | 58° |
| 2026-04-29 10:16 | 45.36618 | 4.84428 | 35011 ft | 478 kts | 57° |
| 2026-04-29 10:17 | 45.39989 | 4.92509 | 35013 ft | 478 kts | 57° |
| 2026-04-29 10:17 | 45.43367 | 5.00628 | 35012 ft | 479 kts | 57° |
| 2026-04-29 10:18 | 45.46749 | 5.08779 | 35023 ft | 478 kts | 57° |
| 2026-04-29 10:18 | 45.50119 | 5.16932 | 35030 ft | 477 kts | 57° |
| 2026-04-29 10:19 | 45.53480 | 5.25089 | 35032 ft | 477 kts | 57° |
| 2026-04-29 10:19 | 45.56836 | 5.33251 | 35033 ft | 477 kts | 57° |
| 2026-04-29 10:20 | 45.60177 | 5.41397 | 35034 ft | 477 kts | 57° |
| 2026-04-29 10:20 | 45.62948 | 5.48168 | 35035 ft | 477 kts | 57° |
| 2026-04-29 10:21 | 45.66977 | 5.57595 | 35034 ft | 475 kts | 52° |
| 2026-04-29 10:21 | 45.71185 | 5.64823 | 35036 ft | 472 kts | 43° |
| 2026-04-29 10:22 | 45.75834 | 5.71386 | 35036 ft | 471 kts | 41° |
| 2026-04-29 10:22 | 45.80576 | 5.77795 | 35041 ft | 469 kts | 40° |
| 2026-04-29 10:23 | 45.85314 | 5.84243 | 35045 ft | 470 kts | 41° |
| 2026-04-29 10:23 | 45.90032 | 5.90755 | 35042 ft | 471 kts | 41° |
| 2026-04-29 10:24 | 45.94717 | 5.97287 | 35047 ft | 471 kts | 41° |
| 2026-04-29 10:24 | 45.99379 | 6.03830 | 35045 ft | 471 kts | 41° |
| 2026-04-29 10:25 | 46.04049 | 6.10407 | 35047 ft | 472 kts | 41° |
| 2026-04-29 10:25 | 46.08742 | 6.17040 | 35051 ft | 471 kts | 41° |
| 2026-04-29 10:26 | 46.13403 | 6.23645 | 35053 ft | 471 kts | 41° |
| 2026-04-29 10:26 | 46.18047 | 6.30238 | 35066 ft | 471 kts | 41° |
| 2026-04-29 10:27 | 46.25024 | 6.40168 | 35077 ft | 472 kts | 41° |
| 2026-04-29 10:28 | 46.29678 | 6.46817 | 35080 ft | 472 kts | 41° |
| 2026-04-29 10:28 | 46.34347 | 6.53508 | 35086 ft | 472 kts | 41° |
| 2026-04-29 10:29 | 46.38982 | 6.60165 | 35096 ft | 471 kts | 41° |
| 2026-04-29 10:29 | 46.43667 | 6.66895 | 35090 ft | 471 kts | 41° |
| 2026-04-29 10:30 | 46.48535 | 6.73170 | 35091 ft | 471 kts | 36° |
| 2026-04-29 10:30 | 46.53639 | 6.79120 | 35097 ft | 470 kts | 35° |
| 2026-04-29 10:31 | 46.58757 | 6.85005 | 35093 ft | 471 kts | 35° |
| 2026-04-29 10:31 | 46.63837 | 6.90909 | 35103 ft | 470 kts | 35° |
| 2026-04-29 10:32 | 46.68915 | 6.96875 | 35099 ft | 470 kts | 35° |
| 2026-04-29 10:32 | 46.73958 | 7.02847 | 35098 ft | 469 kts | 36° |
| 2026-04-29 10:33 | 46.79021 | 7.08872 | 35094 ft | 469 kts | 35° |
| 2026-04-29 10:33 | 46.84053 | 7.14878 | 35089 ft | 471 kts | 35° |
| 2026-04-29 10:34 | 46.89131 | 7.20952 | 35088 ft | 472 kts | 35° |
| 2026-04-29 10:34 | 46.94221 | 7.27056 | 35089 ft | 472 kts | 35° |
| 2026-04-29 10:35 | 46.99291 | 7.33149 | 35090 ft | 473 kts | 35° |
| 2026-04-29 10:35 | 47.04361 | 7.39263 | 35094 ft | 472 kts | 35° |
| 2026-04-29 10:36 | 47.09407 | 7.45361 | 35102 ft | 472 kts | 35° |
| 2026-04-29 10:36 | 47.14482 | 7.51506 | 35109 ft | 473 kts | 34° |
| 2026-04-29 10:37 | 47.19543 | 7.57651 | 35110 ft | 473 kts | 34° |
| 2026-04-29 10:37 | 47.24610 | 7.63823 | 35111 ft | 473 kts | 34° |
| 2026-04-29 10:38 | 47.29661 | 7.69995 | 35109 ft | 475 kts | 36° |
| 2026-04-29 10:38 | 47.34743 | 7.76218 | 35108 ft | 474 kts | 35° |
| 2026-04-29 10:39 | 47.39800 | 7.82426 | 35100 ft | 474 kts | 35° |
| 2026-04-29 10:39 | 47.44867 | 7.88666 | 35106 ft | 476 kts | 35° |
| 2026-04-29 10:40 | 47.49948 | 7.94937 | 35107 ft | 475 kts | 35° |
| 2026-04-29 10:40 | 47.54989 | 8.01169 | 35108 ft | 476 kts | 35° |
| 2026-04-29 10:41 | 47.60077 | 8.07477 | 35115 ft | 477 kts | 35° |
| 2026-04-29 10:41 | 47.65154 | 8.13782 | 35119 ft | 477 kts | 35° |
| 2026-04-29 10:42 | 47.70208 | 8.20078 | 35122 ft | 477 kts | 35° |
| 2026-04-29 10:42 | 47.75313 | 8.26458 | 35127 ft | 478 kts | 35° |
| 2026-04-29 10:43 | 47.80400 | 8.32831 | 35121 ft | 478 kts | 35° |
| 2026-04-29 10:43 | 47.85436 | 8.39160 | 35117 ft | 478 kts | 35° |
| 2026-04-29 10:44 | 47.90417 | 8.45713 | 35123 ft | 479 kts | 37° |
| 2026-04-29 10:44 | 47.95296 | 8.52535 | 35123 ft | 481 kts | 38° |
| 2026-04-29 10:45 | 48.00140 | 8.59393 | 35124 ft | 482 kts | 38° |
| 2026-04-29 10:45 | 48.04997 | 8.66252 | 35142 ft | 481 kts | 38° |
| 2026-04-29 10:46 | 48.09860 | 8.73089 | 35138 ft | 480 kts | 38° |
| 2026-04-29 10:46 | 48.14740 | 8.79948 | 35138 ft | 481 kts | 39° |
| 2026-04-29 10:47 | 48.19591 | 8.86780 | 35150 ft | 479 kts | 39° |
| 2026-04-29 10:47 | 48.24405 | 8.93572 | 35146 ft | 476 kts | 39° |
| 2026-04-29 10:48 | 48.29208 | 9.00366 | 35156 ft | 476 kts | 39° |
| 2026-04-29 10:48 | 48.34042 | 9.07219 | 35156 ft | 475 kts | 38° |
| 2026-04-29 10:49 | 48.38796 | 9.13977 | 35159 ft | 474 kts | 39° |
| 2026-04-29 10:49 | 48.43594 | 9.20818 | 35155 ft | 475 kts | 39° |
| 2026-04-29 10:50 | 48.48347 | 9.27615 | 35170 ft | 473 kts | 39° |
| 2026-04-29 10:50 | 48.53085 | 9.34408 | 35171 ft | 470 kts | 39° |
| 2026-04-29 10:51 | 48.57805 | 9.41195 | 35179 ft | 469 kts | 39° |
| 2026-04-29 10:51 | 48.62537 | 9.48016 | 35184 ft | 470 kts | 39° |
| 2026-04-29 10:52 | 48.67243 | 9.54818 | 35180 ft | 468 kts | 39° |
| 2026-04-29 10:52 | 48.71940 | 9.61622 | 35176 ft | 470 kts | 39° |
| 2026-04-29 10:53 | 48.76660 | 9.68483 | 35184 ft | 467 kts | 40° |
| 2026-04-29 10:53 | 48.81312 | 9.75261 | 35196 ft | 467 kts | 40° |
| 2026-04-29 10:54 | 48.86014 | 9.82130 | 35194 ft | 466 kts | 40° |
| 2026-04-29 10:54 | 48.90680 | 9.88964 | 35200 ft | 466 kts | 40° |
| 2026-04-29 10:55 | 48.95341 | 9.95808 | 35197 ft | 466 kts | 40° |
| 2026-04-29 10:55 | 49.00006 | 10.02684 | 35202 ft | 465 kts | 40° |
| 2026-04-29 10:56 | 49.04622 | 10.09506 | 35210 ft | 464 kts | 40° |
| 2026-04-29 10:56 | 49.09271 | 10.16392 | 35211 ft | 462 kts | 40° |
| 2026-04-29 10:57 | 49.13826 | 10.23157 | 35212 ft | 462 kts | 40° |
| 2026-04-29 10:57 | 49.18393 | 10.30075 | 35213 ft | 462 kts | 41° |
| 2026-04-29 10:58 | 49.22876 | 10.37052 | 35222 ft | 460 kts | 41° |
| 2026-04-29 10:58 | 49.27379 | 10.44047 | 35230 ft | 460 kts | 41° |
| 2026-04-29 10:59 | 49.31887 | 10.50971 | 35244 ft | 456 kts | 41° |
| 2026-04-29 10:59 | 49.36372 | 10.57872 | 35245 ft | 458 kts | 42° |
| 2026-04-29 11:00 | 49.40744 | 10.64878 | 35250 ft | 455 kts | 43° |
| 2026-04-29 11:00 | 49.45100 | 10.71910 | 35240 ft | 456 kts | 43° |
| 2026-04-29 11:01 | 49.49527 | 10.78924 | 35239 ft | 455 kts | 43° |
| 2026-04-29 11:01 | 49.53914 | 10.85854 | 35239 ft | 455 kts | 43° |
| 2026-04-29 11:02 | 49.58307 | 10.92807 | 35241 ft | 454 kts | 43° |
| 2026-04-29 11:02 | 49.62694 | 10.99775 | 35241 ft | 454 kts | 43° |
| 2026-04-29 11:03 | 49.67072 | 11.06752 | 35242 ft | 453 kts | 43° |
| 2026-04-29 11:03 | 49.71415 | 11.13694 | 35245 ft | 453 kts | 43° |
| 2026-04-29 11:04 | 49.75797 | 11.20616 | 35243 ft | 450 kts | 40° |
| 2026-04-29 11:04 | 49.80558 | 11.26788 | 35242 ft | 449 kts | 34° |
| 2026-04-29 11:05 | 49.85556 | 11.32499 | 35239 ft | 447 kts | 33° |
| 2026-04-29 11:05 | 49.90581 | 11.38105 | 35250 ft | 447 kts | 33° |
| 2026-04-29 11:06 | 49.95398 | 11.44169 | 35255 ft | 449 kts | 40° |
| 2026-04-29 11:06 | 49.99858 | 11.50973 | 35263 ft | 449 kts | 42° |
| 2026-04-29 11:07 | 50.04185 | 11.57902 | 35267 ft | 448 kts | 43° |
| 2026-04-29 11:07 | 50.08493 | 11.64834 | 35261 ft | 447 kts | 43° |
| 2026-04-29 11:08 | 50.12754 | 11.71918 | 35278 ft | 448 kts | 44° |
| 2026-04-29 11:08 | 50.16962 | 11.79050 | 35287 ft | 447 kts | 46° |
| 2026-04-29 11:09 | 50.20692 | 11.86791 | 35302 ft | 450 kts | 53° |
| 2026-04-29 11:09 | 50.24030 | 11.95052 | 35302 ft | 453 kts | 55° |
| 2026-04-29 11:10 | 50.27289 | 12.03462 | 35313 ft | 450 kts | 55° |
| 2026-04-29 11:10 | 50.30694 | 12.11566 | 35303 ft | 450 kts | 52° |
| 2026-04-29 11:11 | 50.34402 | 12.19383 | 35299 ft | 444 kts | 45° |
| 2026-04-29 11:11 | 50.38735 | 12.26232 | 35289 ft | 442 kts | 40° |
| 2026-04-29 11:12 | 50.43254 | 12.32672 | 35298 ft | 439 kts | 39° |
| 2026-04-29 11:12 | 50.47798 | 12.39023 | 35289 ft | 440 kts | 39° |
| 2026-04-29 11:13 | 50.52346 | 12.45431 | 35299 ft | 439 kts | 39° |
| 2026-04-29 11:13 | 50.56841 | 12.51831 | 35299 ft | 439 kts | 39° |
| 2026-04-29 11:14 | 50.61362 | 12.58301 | 35309 ft | 439 kts | 39° |
| 2026-04-29 11:14 | 50.65833 | 12.64729 | 35316 ft | 437 kts | 39° |
| 2026-04-29 11:15 | 50.70320 | 12.71207 | 35323 ft | 438 kts | 40° |
| 2026-04-29 11:15 | 50.74809 | 12.77708 | 35326 ft | 437 kts | 40° |
| 2026-04-29 11:16 | 50.79278 | 12.84192 | 35330 ft | 437 kts | 40° |
| 2026-04-29 11:16 | 50.83731 | 12.90670 | 35338 ft | 438 kts | 40° |
| 2026-04-29 11:17 | 50.88224 | 12.97224 | 35334 ft | 437 kts | 40° |
| 2026-04-29 11:17 | 50.92670 | 13.03730 | 35342 ft | 436 kts | 40° |
| 2026-04-29 11:18 | 50.97095 | 13.10225 | 35349 ft | 436 kts | 40° |
| 2026-04-29 11:18 | 51.01535 | 13.16757 | 35365 ft | 436 kts | 40° |
| 2026-04-29 11:19 | 51.05954 | 13.23274 | 35372 ft | 437 kts | 40° |
| 2026-04-29 11:19 | 51.10368 | 13.29805 | 35376 ft | 433 kts | 40° |
| 2026-04-29 11:20 | 51.14777 | 13.36348 | 35373 ft | 432 kts | 40° |
| 2026-04-29 11:20 | 51.19164 | 13.42870 | 35387 ft | 432 kts | 40° |
| 2026-04-29 11:21 | 51.23555 | 13.49422 | 35386 ft | 431 kts | 40° |
| 2026-04-29 11:21 | 51.27925 | 13.55958 | 35383 ft | 431 kts | 40° |
| 2026-04-29 11:22 | 51.32287 | 13.62494 | 35381 ft | 432 kts | 40° |
| 2026-04-29 11:22 | 51.36662 | 13.69074 | 35384 ft | 431 kts | 41° |
| 2026-04-29 11:23 | 51.40998 | 13.75615 | 35380 ft | 431 kts | 40° |
| 2026-04-29 11:23 | 51.45339 | 13.82175 | 35382 ft | 429 kts | 40° |
| 2026-04-29 11:24 | 51.49662 | 13.88729 | 35384 ft | 428 kts | 40° |
| 2026-04-29 11:24 | 51.54000 | 13.95323 | 35388 ft | 428 kts | 40° |
| 2026-04-29 11:25 | 51.58275 | 14.01840 | 35388 ft | 421 kts | 40° |
| 2026-04-29 11:25 | 51.60350 | 14.05020 | 35384 ft | 406 kts | 40° |
| 2026-04-29 11:25 | 51.62356 | 14.08100 | 35393 ft | 398 kts | 40° |
| 2026-04-29 11:26 | 51.67006 | 14.19385 | 35396 ft | 417 kts | 64° |
| 2026-04-29 11:26 | 51.68937 | 14.28151 | 35407 ft | 415 kts | 66° |
| 2026-04-29 11:27 | 51.70817 | 14.36902 | 35408 ft | 415 kts | 65° |
| 2026-04-29 11:27 | 51.72768 | 14.45662 | 35404 ft | 416 kts | 64° |
| 2026-04-29 11:28 | 51.74759 | 14.54392 | 35405 ft | 413 kts | 64° |
| 2026-04-29 11:28 | 51.75750 | 14.58708 | 35176 ft | 409 kts | 64° |
| 2026-04-29 11:28 | 51.76734 | 14.62992 | 34851 ft | 404 kts | 64° |
| 2026-04-29 11:29 | 51.77695 | 14.67175 | 34467 ft | 400 kts | 64° |
| 2026-04-29 11:29 | 51.78659 | 14.71364 | 33951 ft | 394 kts | 64° |
| 2026-04-29 11:29 | 51.79589 | 14.75418 | 33553 ft | 386 kts | 64° |
| 2026-04-29 11:29 | 51.80516 | 14.79449 | 33074 ft | 384 kts | 64° |
| 2026-04-29 11:30 | 51.81437 | 14.83451 | 32624 ft | 381 kts | 64° |
| 2026-04-29 11:30 | 51.82355 | 14.87445 | 32168 ft | 378 kts | 64° |
| 2026-04-29 11:30 | 51.83258 | 14.91381 | 31724 ft | 375 kts | 64° |
| 2026-04-29 11:30 | 51.84153 | 14.95294 | 31281 ft | 371 kts | 64° |
| 2026-04-29 11:31 | 51.85045 | 14.99208 | 30839 ft | 368 kts | 64° |
| 2026-04-29 11:31 | 51.85919 | 15.03051 | 30375 ft | 364 kts | 64° |
| 2026-04-29 11:31 | 51.86774 | 15.06816 | 29934 ft | 359 kts | 63° |
| 2026-04-29 11:31 | 51.87632 | 15.10607 | 29508 ft | 354 kts | 63° |
| 2026-04-29 11:32 | 51.88468 | 15.14311 | 29091 ft | 349 kts | 63° |
| 2026-04-29 11:32 | 51.89287 | 15.17949 | 28672 ft | 345 kts | 63° |
| 2026-04-29 11:32 | 51.90093 | 15.21536 | 28272 ft | 340 kts | 63° |
| 2026-04-29 11:32 | 51.90897 | 15.25112 | 27857 ft | 336 kts | 63° |
| 2026-04-29 11:33 | 51.91690 | 15.28640 | 27453 ft | 332 kts | 62° |
| 2026-04-29 11:33 | 51.92473 | 15.32118 | 27056 ft | 328 kts | 62° |
| 2026-04-29 11:33 | 51.93242 | 15.35544 | 26658 ft | 324 kts | 62° |
| 2026-04-29 11:33 | 51.94002 | 15.38931 | 26264 ft | 320 kts | 62° |
| 2026-04-29 11:34 | 51.94748 | 15.42267 | 25875 ft | 319 kts | 62° |
| 2026-04-29 11:34 | 51.95529 | 15.45732 | 25506 ft | 335 kts | 62° |
| 2026-04-29 11:34 | 51.96334 | 15.49293 | 25062 ft | 340 kts | 62° |
| 2026-04-29 11:34 | 51.97128 | 15.52867 | 24647 ft | 336 kts | 62° |
| 2026-04-29 11:35 | 51.97902 | 15.56389 | 24253 ft | 332 kts | 62° |
| 2026-04-29 11:35 | 51.98675 | 15.59906 | 23836 ft | 328 kts | 62° |
| 2026-04-29 11:35 | 51.99426 | 15.63324 | 23453 ft | 323 kts | 61° |
| 2026-04-29 11:35 | 52.00177 | 15.66738 | 23051 ft | 319 kts | 62° |
| 2026-04-29 11:36 | 52.00915 | 15.70093 | 22653 ft | 315 kts | 62° |
| 2026-04-29 11:36 | 52.01634 | 15.73378 | 22328 ft | 309 kts | 62° |
| 2026-04-29 11:36 | 52.02346 | 15.76638 | 21948 ft | 306 kts | 62° |
| 2026-04-29 11:36 | 52.03063 | 15.79891 | 21573 ft | 312 kts | 62° |
| 2026-04-29 11:37 | 52.03819 | 15.83274 | 21172 ft | 326 kts | 62° |
| 2026-04-29 11:37 | 52.04578 | 15.86710 | 20752 ft | 324 kts | 62° |
| 2026-04-29 11:37 | 52.05317 | 15.90110 | 20357 ft | 319 kts | 62° |
| 2026-04-29 11:37 | 52.06047 | 15.93489 | 19957 ft | 315 kts | 62° |
| 2026-04-29 11:38 | 52.06764 | 15.96808 | 19565 ft | 310 kts | 62° |
| 2026-04-29 11:38 | 52.07468 | 16.00062 | 19189 ft | 305 kts | 62° |
| 2026-04-29 11:38 | 52.08167 | 16.03289 | 18802 ft | 301 kts | 62° |
| 2026-04-29 11:38 | 52.08858 | 16.06475 | 18420 ft | 297 kts | 62° |
| 2026-04-29 11:39 | 52.09529 | 16.09576 | 18050 ft | 292 kts | 62° |
| 2026-04-29 11:39 | 52.10204 | 16.12701 | 17692 ft | 293 kts | 62° |
| 2026-04-29 11:39 | 52.10900 | 16.15886 | 17311 ft | 307 kts | 62° |
| 2026-04-29 11:39 | 52.11617 | 16.19182 | 16904 ft | 309 kts | 62° |
| 2026-04-29 11:40 | 52.12314 | 16.22440 | 16524 ft | 304 kts | 62° |
| 2026-04-29 11:40 | 52.12994 | 16.25641 | 16138 ft | 300 kts | 62° |
| 2026-04-29 11:40 | 52.13670 | 16.28821 | 15762 ft | 296 kts | 62° |
| 2026-04-29 11:40 | 52.14337 | 16.31954 | 15382 ft | 292 kts | 62° |
| 2026-04-29 11:41 | 52.14999 | 16.35050 | 15012 ft | 288 kts | 62° |
| 2026-04-29 11:41 | 52.15643 | 16.38077 | 14647 ft | 285 kts | 62° |
| 2026-04-29 11:41 | 52.16285 | 16.41102 | 14282 ft | 282 kts | 62° |
| 2026-04-29 11:41 | 52.16918 | 16.44082 | 13925 ft | 278 kts | 62° |
| 2026-04-29 11:42 | 52.17550 | 16.47053 | 13569 ft | 275 kts | 62° |
| 2026-04-29 11:42 | 52.18174 | 16.49986 | 13209 ft | 272 kts | 63° |
| 2026-04-29 11:42 | 52.18785 | 16.52864 | 12871 ft | 270 kts | 63° |
| 2026-04-29 11:42 | 52.19391 | 16.55723 | 12520 ft | 267 kts | 63° |
| 2026-04-29 11:43 | 52.19993 | 16.58578 | 12179 ft | 265 kts | 64° |
| 2026-04-29 11:43 | 52.20580 | 16.61366 | 11840 ft | 262 kts | 64° |
| 2026-04-29 11:43 | 52.21178 | 16.64177 | 11496 ft | 260 kts | 64° |
| 2026-04-29 11:43 | 52.21766 | 16.66932 | 11163 ft | 258 kts | 65° |
| 2026-04-29 11:44 | 52.22349 | 16.69674 | 10840 ft | 255 kts | 65° |
| 2026-04-29 11:44 | 52.22918 | 16.72368 | 10550 ft | 251 kts | 66° |
| 2026-04-29 11:44 | 52.23482 | 16.75046 | 10087 ft | 251 kts | 66° |
| 2026-04-29 11:44 | 52.24043 | 16.77710 | 9563 ft | 248 kts | 66° |
| 2026-04-29 11:45 | 52.24596 | 16.80354 | 8999 ft | 247 kts | 67° |
| 2026-04-29 11:45 | 52.25153 | 16.83004 | 8403 ft | 247 kts | 67° |
| 2026-04-29 11:45 | 52.25703 | 16.85610 | 7851 ft | 245 kts | 68° |
| 2026-04-29 11:45 | 52.26257 | 16.88238 | 7281 ft | 244 kts | 68° |
| 2026-04-29 11:46 | 52.26791 | 16.90842 | 6752 ft | 242 kts | 69° |
| 2026-04-29 11:46 | 52.27307 | 16.93424 | 6214 ft | 239 kts | 69° |
| 2026-04-29 11:46 | 52.27825 | 16.95985 | 5673 ft | 238 kts | 68° |
| 2026-04-29 11:46 | 52.28336 | 16.98489 | 5415 ft | 225 kts | 68° |
| 2026-04-29 11:47 | 52.28727 | 17.00861 | 5314 ft | 211 kts | 79° |
| 2026-04-29 11:47 | 52.28623 | 17.03193 | 5111 ft | 209 kts | 103° |
| 2026-04-29 11:47 | 52.28123 | 17.05443 | 4904 ft | 220 kts | 105° |
| 2026-04-29 11:47 | 52.27622 | 17.07870 | 4606 ft | 224 kts | 98° |
| 2026-04-29 11:48 | 52.27583 | 17.10309 | 4379 ft | 212 kts | 71° |
| 2026-04-29 11:48 | 52.28220 | 17.12384 | 4131 ft | 199 kts | 49° |
| 2026-04-29 11:48 | 52.29161 | 17.13915 | 3972 ft | 187 kts | 37° |
| 2026-04-29 11:48 | 52.30257 | 17.14939 | 3890 ft | 176 kts | 18° |
| 2026-04-29 11:49 | 52.31406 | 17.15202 | 3820 ft | 163 kts | 2° |
| 2026-04-29 11:49 | 52.32523 | 17.15026 | 3792 ft | 162 kts | 351° |
| 2026-04-29 11:49 | 52.33581 | 17.14370 | 3744 ft | 164 kts | 338° |
| 2026-04-29 11:49 | 52.34601 | 17.13536 | 3698 ft | 164 kts | 339° |
| 2026-04-29 11:50 | 52.35631 | 17.12710 | 3645 ft | 165 kts | 331° |
| 2026-04-29 11:50 | 52.36381 | 17.11251 | 3563 ft | 177 kts | 300° |
| 2026-04-29 11:50 | 52.36831 | 17.09362 | 3390 ft | 176 kts | 296° |
| 2026-04-29 11:50 | 52.37235 | 17.07497 | 3157 ft | 177 kts | 295° |
| 2026-04-29 11:51 | 52.37625 | 17.05576 | 2953 ft | 175 kts | 294° |
| 2026-04-29 11:51 | 52.37990 | 17.03704 | 2852 ft | 174 kts | 294° |
| 2026-04-29 11:51 | 52.38348 | 17.01860 | 2601 ft | 167 kts | 294° |
| 2026-04-29 11:51 | 52.38699 | 17.00080 | 2371 ft | 161 kts | 294° |
| 2026-04-29 11:52 | 52.39035 | 16.98372 | 2162 ft | 157 kts | 294° |
| 2026-04-29 11:52 | 52.39361 | 16.96708 | 1926 ft | 152 kts | 294° |
| 2026-04-29 11:52 | 52.39685 | 16.95044 | 1741 ft | 151 kts | 294° |
| 2026-04-29 11:52 | 52.40005 | 16.93414 | 1508 ft | 150 kts | 293° |
| 2026-04-29 11:53 | 52.40329 | 16.91765 | 1311 ft | 157 kts | 292° |
| 2026-04-29 11:53 | 52.40670 | 16.90098 | 1128 ft | 150 kts | 290° |
| 2026-04-29 11:53 | 52.40979 | 16.88468 | 898 ft | 152 kts | 292° |
| 2026-04-29 11:53 | 52.41290 | 16.86847 | 713 ft | 149 kts | 290° |
| 2026-04-29 11:54 | 52.41602 | 16.85218 | 505 ft | 148 kts | 289° |
| 2026-04-29 11:54 | 52.41918 | 16.83611 | 309 ft | 151 kts | 288° |
| 2026-04-29 11:54 | 52.42222 | 16.81998 | 294 ft | 134 kts | 292° |
| 2026-04-29 11:54 | 52.42409 | 16.81095 | 301 ft | 38 kts | 291° |
| 2026-04-29 11:55 | 52.42435 | 16.80931 | 302 ft | 13 kts | 287° |
| 2026-04-29 11:55 | 52.42470 | 16.80754 | 304 ft | 18 kts | 284° |
| 2026-04-29 11:55 | 52.42444 | 16.80600 | 304 ft | 0 kts | 212° |
| 2026-04-29 11:55 | 52.42393 | 16.80563 | 304 ft | 13 kts | 192° |
| 2026-04-29 11:56 | 52.42314 | 16.80664 | 304 ft | 19 kts | 118° |
| 2026-04-29 11:56 | 52.42280 | 16.80804 | 303 ft | 13 kts | 112° |
| 2026-04-29 11:56 | 52.42236 | 16.81020 | 301 ft | 24 kts | 108° |
| 2026-04-29 11:56 | 52.42172 | 16.81323 | 297 ft | 23 kts | 110° |
| 2026-04-29 11:57 | 52.42162 | 16.81383 | 297 ft | 2 kts | 101° |
| 2026-04-29 11:57 | 52.42146 | 16.81489 | 297 ft | 14 kts | 108° |
| 2026-04-29 11:57 | 52.42099 | 16.81719 | 294 ft | 25 kts | 105° |
| 2026-04-29 11:57 | 52.42034 | 16.82032 | 294 ft | 31 kts | 105° |
| 2026-04-29 11:58 | 52.41972 | 16.82395 | 293 ft | 33 kts | 107° |
| 2026-04-29 11:58 | 52.41904 | 16.82730 | 293 ft | 29 kts | 112° |
| 2026-04-29 11:58 | 52.41869 | 16.82866 | 295 ft | 7 kts | 118° |
| 2026-04-29 11:58 | 52.41794 | 16.82884 | 293 ft | 17 kts | 197° |
| 2026-04-29 11:59 | 52.41666 | 16.82844 | 291 ft | 14 kts | 180° |
| 2026-04-29 11:59 | 52.41573 | 16.82816 | 291 ft | 2 kts | 190° |
| 2026-04-29 11:59 | 52.41578 | 16.82817 | 291 ft | 0 kts | 189° |